Time;durP1;ratioP1;P1;durP2;ratioP2;P2;SDS_P1;SDS_P2;PMS_P1;PMS_P2;Temp;Humidity;BMP_temperature;BMP_pressure;BME280_temperature;BME280_humidity;BME280_pressure;Samples;Min_cycle;Max_cycle;Signal;HPM_P1;HPM_P2
2023/03/15 00:02:14;;;;;;;1999.90;999.90;;;3.70;99.90;;;;;;5100298;28;20477;-66
2023/03/15 00:04:41;;;;;;;1999.90;999.90;;;3.60;99.90;;;;;;5106595;28;20520;-67
2023/03/15 00:07:08;;;;;;;1999.90;999.90;;;3.50;99.90;;;;;;5108004;28;20507;-69
2023/03/15 00:09:35;;;;;;;1999.90;999.90;;;3.50;99.90;;;;;;5107256;28;20424;-68
2023/03/15 00:12:03;;;;;;;1999.90;999.90;;;3.60;99.90;;;;;;5104142;28;20458;-68
2023/03/15 00:14:30;;;;;;;1999.90;999.90;;;3.60;99.90;;;;;;5106631;28;20917;-68
2023/03/15 00:16:57;;;;;;;1999.90;999.90;;;3.60;99.90;;;;;;5100132;28;20428;-68
2023/03/15 00:19:23;;;;;;;1999.90;999.90;;;3.60;99.90;;;;;;5111024;28;20498;-68
2023/03/15 00:21:50;;;;;;;1999.90;999.90;;;3.50;99.90;;;;;;5110544;28;20488;-68
2023/03/15 00:24:16;;;;;;;1999.90;999.90;;;3.50;99.90;;;;;;5109912;28;20513;-68
2023/03/15 00:26:43;;;;;;;1999.90;999.90;;;3.40;99.90;;;;;;5106625;28;20423;-68
2023/03/15 00:29:11;;;;;;;1999.90;999.90;;;3.40;99.90;;;;;;5105848;28;20428;-69
2023/03/15 00:31:38;;;;;;;1999.90;999.90;;;3.50;99.90;;;;;;5101417;28;20487;-68
2023/03/15 00:34:04;;;;;;;1999.90;999.90;;;3.50;99.90;;;;;;5109502;28;20453;-68
2023/03/15 00:36:32;;;;;;;1999.90;999.90;;;3.50;99.90;;;;;;5110093;28;20963;-67
2023/03/15 00:38:59;;;;;;;1999.90;999.90;;;3.40;99.90;;;;;;5110259;28;20424;-69
2023/03/15 00:41:26;;;;;;;1999.90;999.90;;;3.50;99.90;;;;;;5107444;28;20485;-68
2023/03/15 00:43:52;;;;;;;1999.90;999.90;;;3.40;99.90;;;;;;5106175;28;20485;-69
2023/03/15 00:46:20;;;;;;;1999.90;999.90;;;3.40;99.90;;;;;;5111506;28;20580;-68
2023/03/15 00:48:48;;;;;;;1999.90;999.90;;;3.40;99.90;;;;;;5107765;28;20918;-68
2023/03/15 00:51:17;;;;;;;1999.90;999.90;;;3.50;99.90;;;;;;5108140;28;20485;-68
2023/03/15 00:53:45;;;;;;;1999.90;999.90;;;3.40;99.90;;;;;;5103783;28;20428;-68
2023/03/15 00:56:14;;;;;;;1999.90;999.90;;;3.40;99.90;;;;;;5110169;28;20428;-67
2023/03/15 00:58:41;;;;;;;1999.90;999.90;;;3.40;99.90;;;;;;5109832;28;20457;-67
2023/03/15 01:01:15;;;;;;;1999.90;999.90;;;3.40;99.90;;;;;;5105909;28;20431;-67
2023/03/15 01:03:43;;;;;;;1999.90;999.90;;;3.40;99.90;;;;;;5103535;28;20424;-63
2023/03/15 01:06:12;;;;;;;1999.90;999.90;;;3.40;99.90;;;;;;5108903;28;20481;-64
2023/03/15 01:08:40;;;;;;;1999.90;999.90;;;3.40;99.90;;;;;;5108500;28;20431;-63
2023/03/15 01:11:10;;;;;;;1999.90;999.90;;;3.40;99.90;;;;;;5109378;28;20432;-65
2023/03/15 01:13:37;;;;;;;1999.90;999.90;;;3.30;99.90;;;;;;5103929;28;20642;-64
2023/03/15 01:16:04;;;;;;;1999.90;999.90;;;3.40;99.90;;;;;;5108767;28;20424;-66
2023/03/15 01:18:31;;;;;;;1999.90;999.90;;;3.30;99.90;;;;;;5108497;28;20428;-64
2023/03/15 01:20:59;;;;;;;1999.90;999.90;;;3.40;99.90;;;;;;5106638;28;20482;-64
2023/03/15 01:23:26;;;;;;;1999.90;999.90;;;3.40;99.90;;;;;;5106588;28;20424;-65
2023/03/15 01:25:53;;;;;;;1999.90;999.90;;;3.40;99.90;;;;;;5108531;28;20477;-65
2023/03/15 01:28:19;;;;;;;1999.90;999.90;;;3.30;99.90;;;;;;5106842;28;20536;-65
2023/03/15 01:30:49;;;;;;;1999.90;999.90;;;3.30;99.90;;;;;;5105067;28;20925;-65
2023/03/15 01:33:16;;;;;;;1999.90;999.90;;;3.30;99.90;;;;;;5105329;28;20436;-66
2023/03/15 01:35:43;;;;;;;1999.90;999.90;;;3.30;99.90;;;;;;5109598;28;20953;-64
2023/03/15 01:38:11;;;;;;;1999.90;999.90;;;3.30;99.90;;;;;;5108727;28;20863;-63
2023/03/15 01:40:41;;;;;;;1999.90;999.90;;;3.30;99.90;;;;;;5107548;28;20492;-66
2023/03/15 01:43:18;;;;;;;1999.90;999.90;;;3.30;99.90;;;;;;5105329;28;20429;-65
2023/03/15 01:46:04;;;;;;;1999.90;999.90;;;3.30;99.90;;;;;;5105178;28;20428;-63
2023/03/15 01:48:36;;;;;;;1999.90;999.90;;;3.20;99.90;;;;;;5106911;28;20432;-61
2023/03/15 01:51:09;;;;;;;1999.90;999.90;;;3.20;99.90;;;;;;5106190;28;20435;-65
2023/03/15 01:53:40;;;;;;;1999.90;999.90;;;3.20;99.90;;;;;;5104092;28;20432;-65
2023/03/15 01:56:07;;;;;;;1999.90;999.90;;;3.20;99.90;;;;;;5107261;28;20959;-65
2023/03/15 01:58:36;;;;;;;1999.90;999.90;;;3.30;99.90;;;;;;5108115;28;20487;-65
2023/03/15 02:01:03;;;;;;;1999.90;999.90;;;3.30;99.90;;;;;;5107668;28;20465;-65
2023/03/15 02:03:34;;;;;;;1999.90;999.90;;;3.30;99.90;;;;;;5103152;28;20891;-65
2023/03/15 02:06:06;;;;;;;1999.90;999.90;;;3.30;99.90;;;;;;5107342;28;20922;-65
2023/03/15 02:08:37;;;;;;;1999.90;999.90;;;3.30;99.90;;;;;;5107326;28;20424;-65
2023/03/15 02:11:06;;;;;;;1999.90;999.90;;;3.20;99.90;;;;;;5104288;28;20851;-65
2023/03/15 02:13:34;;;;;;;1999.90;999.90;;;3.30;99.90;;;;;;5107980;28;20428;-65
2023/03/15 02:16:05;;;;;;;1999.90;999.90;;;3.20;99.90;;;;;;5106348;28;20464;-66
2023/03/15 02:18:34;;;;;;;1999.90;999.90;;;3.20;99.90;;;;;;5109061;28;20420;-65
2023/03/15 02:21:08;;;;;;;1999.90;999.90;;;3.20;99.90;;;;;;5104945;28;20441;-65
2023/03/15 02:23:35;;;;;;;1999.90;999.90;;;3.20;99.90;;;;;;5103666;28;20493;-66
2023/03/15 02:26:15;;;;;;;1999.90;999.90;;;3.20;99.90;;;;;;5101855;28;20485;-66
2023/03/15 02:28:44;;;;;;;1999.90;999.90;;;3.20;99.90;;;;;;5101042;28;20430;-65
2023/03/15 02:31:11;;;;;;;1999.90;999.90;;;3.20;99.90;;;;;;5104783;28;20433;-65
2023/03/15 02:33:42;;;;;;;1999.90;999.90;;;3.20;99.90;;;;;;5102665;28;20424;-65
2023/03/15 02:36:16;;;;;;;1999.90;999.90;;;3.30;99.90;;;;;;5107419;28;20916;-65
2023/03/15 02:38:43;;;;;;;1999.90;999.90;;;3.30;99.90;;;;;;5107997;28;20446;-63
2023/03/15 02:41:11;;;;;;;1999.90;999.90;;;3.20;99.90;;;;;;5106399;28;20984;-64
2023/03/15 02:43:40;;;;;;;1999.90;999.90;;;3.30;99.90;;;;;;5105683;28;20486;-65
2023/03/15 02:46:09;;;;;;;1999.90;999.90;;;3.20;99.90;;;;;;5106603;28;20424;-66
2023/03/15 02:48:38;;;;;;;1999.90;999.90;;;3.30;99.90;;;;;;5107153;28;20429;-66
2023/03/15 02:51:05;;;;;;;1999.90;999.90;;;3.30;99.90;;;;;;5106507;28;20431;-66
2023/03/15 02:53:32;;;;;;;1999.90;999.90;;;3.30;99.90;;;;;;5102891;28;20436;-65
2023/03/15 02:55:58;;;;;;;1999.90;999.90;;;3.30;99.90;;;;;;5106265;28;20501;-65
2023/03/15 02:58:25;;;;;;;1999.90;999.90;;;3.20;99.90;;;;;;5104855;28;20424;-65
2023/03/15 03:00:52;;;;;;;1999.90;999.90;;;3.20;99.90;;;;;;5105318;28;20477;-65
2023/03/15 03:03:20;;;;;;;1999.90;999.90;;;3.20;99.90;;;;;;5104336;28;20485;-65
2023/03/15 03:05:47;;;;;;;1999.90;999.90;;;3.20;99.90;;;;;;5105515;28;20970;-63
2023/03/15 03:08:15;;;;;;;1999.90;999.90;;;3.20;99.90;;;;;;5108184;28;20481;-62
2023/03/15 03:10:42;;;;;;;1999.90;999.90;;;3.20;99.90;;;;;;5105608;28;20432;-65
2023/03/15 03:13:08;;;;;;;1999.90;999.90;;;3.20;99.90;;;;;;5100026;28;20427;-63
2023/03/15 03:15:35;;;;;;;1999.90;999.90;;;3.20;99.90;;;;;;5107851;28;20432;-65
2023/03/15 03:18:01;;;;;;;1999.90;999.90;;;3.30;99.90;;;;;;5105177;28;20484;-65
2023/03/15 03:20:29;;;;;;;1999.90;999.90;;;3.30;99.90;;;;;;5105616;28;20420;-65
2023/03/15 03:22:56;;;;;;;1999.90;999.90;;;3.30;99.90;;;;;;5102143;28;20480;-65
2023/03/15 03:25:25;;;;;;;1999.90;999.90;;;3.40;99.90;;;;;;5107485;28;20419;-65
2023/03/15 03:27:56;;;;;;;1999.90;999.90;;;3.50;99.90;;;;;;5105381;28;20439;-64
2023/03/15 03:30:22;;;;;;;1999.90;999.90;;;3.40;99.90;;;;;;5106604;28;20856;-62
2023/03/15 03:32:49;;;;;;;1999.90;999.90;;;3.50;99.90;;;;;;5103012;28;20943;-64
2023/03/15 03:35:16;;;;;;;1999.90;999.90;;;3.50;99.90;;;;;;5101773;28;20473;-65
2023/03/15 03:37:44;;;;;;;1999.90;999.90;;;3.50;99.90;;;;;;5107079;28;20423;-62
2023/03/15 03:40:12;;;;;;;1999.90;999.90;;;3.60;99.90;;;;;;5106233;28;20409;-66
2023/03/15 03:42:39;;;;;;;1999.90;999.90;;;3.70;99.90;;;;;;5103621;28;20473;-63
2023/03/15 03:45:07;;;;;;;1999.90;999.90;;;3.70;99.90;;;;;;5103848;28;20591;-64
2023/03/15 03:47:33;;;;;;;1999.90;999.90;;;3.60;99.90;;;;;;5107068;28;20524;-65
2023/03/15 03:50:00;;;;;;;1999.90;999.90;;;3.50;99.90;;;;;;5104856;28;20420;-64
2023/03/15 03:52:26;;;;;;;1999.90;999.90;;;3.60;99.90;;;;;;5104822;28;20909;-64
2023/03/15 03:54:54;;;;;;;1999.90;999.90;;;3.60;99.90;;;;;;5100877;28;20473;-64
2023/03/15 03:57:21;;;;;;;1999.90;999.90;;;3.60;99.90;;;;;;5107116;28;20485;-65
2023/03/15 03:59:48;;;;;;;1999.90;999.90;;;3.60;99.90;;;;;;5105933;28;20481;-64
2023/03/15 04:02:14;;;;;;;1999.90;999.90;;;3.60;99.90;;;;;;5101621;28;20480;-65
2023/03/15 04:04:41;;;;;;;1999.90;999.90;;;3.60;99.90;;;;;;5100722;28;20926;-64
2023/03/15 04:07:07;;;;;;;1999.90;999.90;;;3.60;99.90;;;;;;5099596;28;20806;-65
2023/03/15 04:09:36;;;;;;;1999.90;999.90;;;3.60;99.90;;;;;;5107163;28;20440;-65
2023/03/15 04:12:05;;;;;;;1999.90;999.90;;;3.60;99.90;;;;;;5103557;28;20504;-65
2023/03/15 04:14:31;;;;;;;1999.90;999.90;;;3.60;99.90;;;;;;5109077;28;20427;-65
2023/03/15 04:16:58;;;;;;;1999.90;999.90;;;3.50;99.90;;;;;;5121401;28;20454;-65
2023/03/15 04:19:25;;;;;;;1999.90;999.90;;;3.60;99.90;;;;;;5122956;28;20424;-65
2023/03/15 04:21:51;;;;;;;1999.90;999.90;;;3.60;99.90;;;;;;5118597;28;20430;-66
2023/03/15 04:24:18;;;;;;;1999.90;999.90;;;3.50;99.90;;;;;;5123068;28;20425;-65
2023/03/15 04:26:45;;;;;;;1999.90;999.90;;;3.60;99.90;;;;;;5118487;28;20424;-64
2023/03/15 04:29:14;;;;;;;1999.90;999.90;;;3.60;99.90;;;;;;5095246;28;20972;-65
2023/03/15 04:31:42;;;;;;;1999.90;999.90;;;3.70;99.90;;;;;;5099164;28;20435;-65
2023/03/15 04:34:09;;;;;;;1999.90;999.90;;;3.70;99.90;;;;;;5103674;28;20447;-66
2023/03/15 04:36:35;;;;;;;1999.90;999.90;;;3.80;99.90;;;;;;5110175;28;20424;-64
2023/03/15 04:39:04;;;;;;;1999.90;999.90;;;3.80;99.90;;;;;;5109503;28;20424;-66
2023/03/15 04:41:34;;;;;;;1999.90;999.90;;;3.70;99.90;;;;;;5105115;28;20435;-66
2023/03/15 04:44:02;;;;;;;1999.90;999.90;;;3.70;99.90;;;;;;5102929;28;20528;-65
2023/03/15 04:46:30;;;;;;;1999.90;999.90;;;3.70;99.90;;;;;;5108096;28;20431;-65
2023/03/15 04:48:57;;;;;;;1999.90;999.90;;;3.60;99.90;;;;;;5106042;28;20473;-64
2023/03/15 04:51:24;;;;;;;1999.90;999.90;;;3.60;99.90;;;;;;5108131;28;20419;-65
2023/03/15 04:53:51;;;;;;;1999.90;999.90;;;3.60;99.90;;;;;;5103132;28;20483;-64
2023/03/15 04:56:17;;;;;;;1999.90;999.90;;;3.50;99.90;;;;;;5108046;28;20422;-65
2023/03/15 04:58:44;;;;;;;1999.90;999.90;;;3.50;99.90;;;;;;5109341;28;20836;-63
2023/03/15 05:01:11;;;;;;;1999.90;999.90;;;3.40;99.90;;;;;;5105987;28;20438;-65
2023/03/15 05:03:39;;;;;;;1999.90;999.90;;;3.30;99.90;;;;;;5104188;28;20424;-64
2023/03/15 05:06:07;;;;;;;1999.90;999.90;;;3.30;99.90;;;;;;5106453;28;20428;-62
2023/03/15 05:08:34;;;;;;;1999.90;999.90;;;3.30;99.90;;;;;;5106369;28;20434;-64
2023/03/15 05:11:01;;;;;;;1999.90;999.90;;;3.20;99.90;;;;;;5106573;28;20459;-65
2023/03/15 05:13:28;;;;;;;1999.90;999.90;;;3.20;99.90;;;;;;5103744;28;20511;-67
2023/03/15 05:15:55;;;;;;;1999.90;999.90;;;3.20;99.90;;;;;;5105447;28;20424;-63
2023/03/15 05:18:22;;;;;;;1999.90;999.90;;;3.10;99.90;;;;;;5109054;28;20439;-64
2023/03/15 05:20:50;;;;;;;1999.90;999.90;;;3.20;99.90;;;;;;5108242;28;20424;-65
2023/03/15 05:23:17;;;;;;;1999.90;999.90;;;3.20;99.90;;;;;;5104164;28;20470;-65
2023/03/15 05:25:44;;;;;;;1999.90;999.90;;;3.20;99.90;;;;;;5106301;28;20424;-65
2023/03/15 05:28:10;;;;;;;1999.90;999.90;;;3.30;99.90;;;;;;5108053;28;20485;-65
2023/03/15 05:30:37;;;;;;;1999.90;999.90;;;3.20;99.90;;;;;;5108653;28;20845;-64
2023/03/15 05:33:04;;;;;;;1999.90;999.90;;;3.20;99.90;;;;;;5100671;28;20433;-64
2023/03/15 05:35:30;;;;;;;1999.90;999.90;;;3.20;99.90;;;;;;5107498;28;20468;-65
2023/03/15 05:37:58;;;;;;;1999.90;999.90;;;3.10;99.90;;;;;;5107783;28;20427;-64
2023/03/15 05:40:25;;;;;;;1999.90;999.90;;;3.10;99.90;;;;;;5107474;28;20865;-65
2023/03/15 05:42:52;;;;;;;1999.90;999.90;;;3.10;99.90;;;;;;5101571;28;20466;-64
2023/03/15 05:45:18;;;;;;;1999.90;999.90;;;3.00;99.90;;;;;;5104282;28;20420;-65
2023/03/15 05:47:45;;;;;;;1999.90;999.90;;;3.10;99.90;;;;;;5109439;28;20432;-65
2023/03/15 05:50:12;;;;;;;1999.90;999.90;;;3.10;99.90;;;;;;5107537;28;20420;-65
2023/03/15 05:52:38;;;;;;;1999.90;999.90;;;3.10;99.90;;;;;;5104773;28;20548;-65
2023/03/15 05:55:07;;;;;;;1999.90;999.90;;;3.10;99.90;;;;;;5102787;28;20432;-63
2023/03/15 05:57:34;;;;;;;1999.90;999.90;;;3.10;99.90;;;;;;5108970;28;20489;-65
2023/03/15 06:00:00;;;;;;;1999.90;999.90;;;3.00;99.90;;;;;;5103183;28;20493;-66
2023/03/15 06:02:27;;;;;;;1999.90;999.90;;;3.00;99.90;;;;;;5103402;28;20496;-66
2023/03/15 06:04:53;;;;;;;1999.90;999.90;;;3.10;99.90;;;;;;5109058;28;20481;-64
2023/03/15 06:07:20;;;;;;;1999.90;999.90;;;3.30;99.90;;;;;;5107056;28;20433;-66
2023/03/15 06:09:47;;;;;;;1999.90;999.90;;;3.00;99.90;;;;;;5107476;28;20455;-64
2023/03/15 06:12:15;;;;;;;1999.90;999.90;;;3.10;99.90;;;;;;5104380;28;20828;-66
2023/03/15 06:14:42;;;;;;;1999.90;999.90;;;3.10;99.90;;;;;;5107867;28;20420;-65
2023/03/15 06:17:08;;;;;;;1999.90;999.90;;;3.10;99.90;;;;;;5108290;28;20522;-62
2023/03/15 06:19:35;;;;;;;1999.90;999.90;;;3.10;99.90;;;;;;5107008;28;20428;-65
2023/03/15 06:22:02;;;;;;;1999.90;999.90;;;3.20;99.90;;;;;;5104510;28;20844;-63
2023/03/15 06:24:29;;;;;;;1999.90;999.90;;;3.30;99.90;;;;;;5106606;28;20511;-65
2023/03/15 06:26:55;;;;;;;1999.90;999.90;;;3.40;99.90;;;;;;5108512;28;20432;-63
2023/03/15 06:29:24;;;;;;;1999.90;999.90;;;3.50;99.90;;;;;;5106685;28;20434;-62
2023/03/15 06:31:51;;;;;;;1999.90;999.90;;;3.40;99.90;;;;;;5105588;28;20485;-63
2023/03/15 06:34:19;;;;;;;1999.90;999.90;;;3.40;99.90;;;;;;5105442;28;20467;-62
2023/03/15 06:36:46;;;;;;;1999.90;999.90;;;3.40;99.90;;;;;;5107782;28;20936;-62
2023/03/15 06:39:13;;;;;;;1999.90;999.90;;;3.50;99.90;;;;;;5105397;28;20515;-62
2023/03/15 06:41:41;;;;;;;1999.90;999.90;;;3.50;99.90;;;;;;5104322;28;20424;-65
2023/03/15 06:44:08;;;;;;;1999.90;999.90;;;3.60;99.90;;;;;;5097675;28;20430;-63
2023/03/15 06:46:36;;;;;;;1999.90;999.90;;;3.60;99.90;;;;;;5099780;28;20495;-65
2023/03/15 06:49:03;;;;;;;1999.90;999.90;;;3.50;99.90;;;;;;5105340;28;20428;-65
2023/03/15 06:51:30;;;;;;;1999.90;999.90;;;3.50;99.90;;;;;;5110823;28;20478;-66
2023/03/15 06:53:57;;;;;;;1999.90;999.90;;;3.50;99.90;;;;;;5109074;27;20443;-65
2023/03/15 06:56:23;;;;;;;1999.90;999.90;;;3.60;99.90;;;;;;5105190;28;20997;-65
2023/03/15 06:58:50;;;;;;;1999.90;999.90;;;3.60;99.90;;;;;;5101607;28;20430;-65
2023/03/15 07:01:16;;;;;;;1999.90;999.90;;;3.70;99.90;;;;;;5101776;28;20473;-66
2023/03/15 07:03:44;;;;;;;1999.90;999.90;;;3.90;99.90;;;;;;5101700;28;20463;-65
2023/03/15 07:06:11;;;;;;;1999.90;999.90;;;3.90;99.90;;;;;;5099275;28;20781;-66
2023/03/15 07:08:38;;;;;;;1999.90;999.90;;;4.10;99.90;;;;;;5102326;28;20467;-65
2023/03/15 07:11:05;;;;;;;1999.90;999.90;;;4.20;99.90;;;;;;5090476;28;20526;-66
2023/03/15 07:13:31;;;;;;;1999.90;999.90;;;4.40;99.90;;;;;;5090757;28;20426;-66
2023/03/15 07:15:58;;;;;;;1999.90;999.90;;;4.40;99.90;;;;;;5096735;28;20846;-67
2023/03/15 07:18:25;;;;;;;1999.90;999.90;;;4.50;99.90;;;;;;5097970;28;20429;-66
2023/03/15 07:21:00;;;;;;;1999.90;999.90;;;4.60;99.90;;;;;;5107007;28;20411;-66
2023/03/15 07:23:27;;;;;;;1999.90;999.90;;;4.50;99.90;;;;;;5098872;28;20428;-66
2023/03/15 07:25:54;;;;;;;1999.90;999.90;;;4.50;99.90;;;;;;5108713;28;20420;-64
2023/03/15 07:28:21;;;;;;;1999.90;999.90;;;4.60;99.90;;;;;;5109148;28;20422;-66
2023/03/15 07:30:55;;;;;;;1999.90;999.90;;;4.60;99.90;;;;;;5106720;28;20481;-65
2023/03/15 07:33:22;;;;;;;1999.90;999.90;;;4.60;99.90;;;;;;5107478;28;21226;-65
2023/03/15 07:35:49;;;;;;;1999.90;999.90;;;4.60;99.90;;;;;;5102505;28;20432;-66
2023/03/15 07:38:17;;;;;;;1999.90;999.90;;;4.60;99.90;;;;;;5106609;28;20517;-64
2023/03/15 07:40:44;;;;;;;1999.90;999.90;;;4.60;99.90;;;;;;5106885;28;20805;-66
2023/03/15 07:43:10;;;;;;;1999.90;999.90;;;4.60;99.90;;;;;;5105599;28;20432;-65
2023/03/15 07:45:37;;;;;;;1999.90;999.90;;;4.70;99.90;;;;;;5107473;28;20909;-66
2023/03/15 07:48:04;;;;;;;1999.90;999.90;;;4.70;99.90;;;;;;5106710;28;20906;-64
2023/03/15 07:50:31;;;;;;;1999.90;999.90;;;4.60;99.90;;;;;;5107408;28;20485;-66
2023/03/15 07:52:57;;;;;;;1999.90;999.90;;;4.70;99.90;;;;;;5102365;28;20432;-66
2023/03/15 07:55:25;;;;;;;1999.90;999.90;;;4.70;99.90;;;;;;5090179;28;20414;-65
2023/03/15 07:57:52;;;;;;;1999.90;999.90;;;4.60;99.90;;;;;;5101699;28;20917;-65
2023/03/15 08:00:21;;;;;;;1999.90;999.90;;;4.70;99.90;;;;;;5103825;28;20915;-64
2023/03/15 08:02:48;;;;;;;1999.90;999.90;;;4.80;99.90;;;;;;5102435;28;20925;-65
2023/03/15 08:05:17;;;;;;;1999.90;999.90;;;4.90;99.90;;;;;;5104277;28;20432;-65
2023/03/15 08:07:44;;;;;;;1999.90;999.90;;;5.00;99.90;;;;;;5112081;28;20937;-66
2023/03/15 08:10:12;;;;;;;1999.90;999.90;;;5.00;99.90;;;;;;5100147;28;20474;-65
2023/03/15 08:12:41;;;;;;;1999.90;999.90;;;4.90;99.90;;;;;;5102336;28;20516;-66
2023/03/15 08:15:09;;;;;;;1999.90;999.90;;;4.70;99.90;;;;;;5109909;28;20966;-65
2023/03/15 08:17:36;;;;;;;1999.90;999.90;;;4.60;99.90;;;;;;5114512;28;20489;-65
2023/03/15 08:20:03;;;;;;;1999.90;999.90;;;4.60;99.90;;;;;;5094275;28;20417;-65
2023/03/15 08:22:30;;;;;;;1999.90;999.90;;;4.60;99.90;;;;;;5096320;28;20807;-63
2023/03/15 08:24:56;;;;;;;1999.90;999.90;;;4.60;99.90;;;;;;5102030;28;20510;-66
2023/03/15 08:27:24;;;;;;;1999.90;999.90;;;4.70;99.90;;;;;;5094018;28;20417;-66
2023/03/15 08:29:52;;;;;;;1999.90;999.90;;;4.80;99.90;;;;;;5096425;28;20428;-66
2023/03/15 08:32:20;;;;;;;1999.90;999.90;;;4.80;99.90;;;;;;5104540;28;20424;-64
2023/03/15 08:34:46;;;;;;;1999.90;999.90;;;4.90;99.90;;;;;;5111407;28;20499;-66
2023/03/15 08:37:13;;;;;;;1999.90;999.90;;;5.00;99.90;;;;;;5113891;28;20410;-66
2023/03/15 08:39:40;;;;;;;1999.90;999.90;;;5.10;99.90;;;;;;5104929;28;20488;-66
2023/03/15 08:42:07;;;;;;;1999.90;999.90;;;5.20;99.90;;;;;;5102073;28;20957;-66
2023/03/15 08:44:33;;;;;;;1999.90;999.90;;;5.30;99.90;;;;;;5093506;28;21110;-66
2023/03/15 08:47:01;;;;;;;1999.90;999.90;;;5.40;99.90;;;;;;5093602;28;20467;-65
2023/03/15 08:49:28;;;;;;;1999.90;999.90;;;5.80;99.90;;;;;;5098639;28;20481;-66
2023/03/15 08:51:55;;;;;;;1999.90;999.90;;;6.20;99.90;;;;;;5098097;28;20425;-66
2023/03/15 08:54:22;;;;;;;1999.90;999.90;;;6.40;99.90;;;;;;5111035;28;20424;-65
2023/03/15 08:56:49;;;;;;;1999.90;999.90;;;6.70;99.90;;;;;;5108692;28;20935;-65
2023/03/15 08:59:16;;;;;;;1999.90;999.90;;;6.90;99.90;;;;;;5108927;28;20431;-66
2023/03/15 09:01:43;;;;;;;1999.90;999.90;;;6.80;99.90;;;;;;5109875;28;20430;-65
2023/03/15 09:04:11;;;;;;;1999.90;999.90;;;7.00;99.90;;;;;;5104959;28;20418;-68
2023/03/15 09:06:38;;;;;;;1999.90;999.90;;;7.30;99.90;;;;;;5111651;28;20878;-66
2023/03/15 09:09:05;;;;;;;1999.90;999.90;;;7.30;99.90;;;;;;5093868;28;20483;-64
2023/03/15 09:11:32;;;;;;;1999.90;999.90;;;6.90;99.90;;;;;;5106226;28;20424;-65
2023/03/15 09:13:58;;;;;;;1999.90;999.90;;;6.50;99.90;;;;;;5109163;28;20539;-65
2023/03/15 09:16:25;;;;;;;1999.90;999.90;;;6.20;99.90;;;;;;5109964;28;20427;-66
2023/03/15 09:18:52;;;;;;;1999.90;999.90;;;6.10;99.90;;;;;;5109573;28;20493;-66
2023/03/15 09:21:20;;;;;;;1999.90;999.90;;;6.40;99.90;;;;;;5109095;28;20432;-65
2023/03/15 09:23:46;;;;;;;1999.90;999.90;;;6.30;99.90;;;;;;5108815;28;20428;-64
2023/03/15 09:26:13;;;;;;;1999.90;999.90;;;6.40;99.90;;;;;;5109887;28;20881;-65
2023/03/15 09:28:39;;;;;;;1999.90;999.90;;;6.40;99.90;;;;;;5104795;28;20477;-64
2023/03/15 09:31:07;;;;;;;1999.90;999.90;;;6.20;99.90;;;;;;5103851;28;20508;-63
2023/03/15 09:33:33;;;;;;;1999.90;999.90;;;6.00;99.90;;;;;;5107908;28;20992;-66
2023/03/15 09:36:00;;;;;;;1999.90;999.90;;;6.00;99.90;;;;;;5105720;28;20430;-66
2023/03/15 09:38:28;;;;;;;1999.90;999.90;;;6.00;99.90;;;;;;5103727;28;20425;-65
2023/03/15 09:40:58;;;;;;;1999.90;999.90;;;6.30;99.90;;;;;;5109183;28;20752;-65
2023/03/15 09:43:56;;;;;;;1999.90;999.90;;;6.70;99.90;;;;;;5100815;28;20413;-66
2023/03/15 09:46:29;;;;;;;1999.90;999.90;;;7.00;99.90;;;;;;5095934;28;20483;-67
2023/03/15 09:49:01;;;;;;;1999.90;999.90;;;7.60;99.90;;;;;;5100695;28;20455;-66
2023/03/15 09:51:35;;;;;;;1999.90;999.90;;;7.60;99.90;;;;;;5092213;28;21046;-66
2023/03/15 09:54:06;;;;;;;1999.90;999.90;;;7.60;99.90;;;;;;5092313;28;20410;-66
2023/03/15 09:56:37;;;;;;;1999.90;999.90;;;7.60;99.90;;;;;;5095313;28;20835;-66
2023/03/15 09:59:05;;;;;;;1999.90;999.90;;;7.50;99.90;;;;;;5100382;28;20424;-67
2023/03/15 10:01:36;;;;;;;1999.90;999.90;;;7.40;99.90;;;;;;5091973;28;20405;-66
2023/03/15 10:04:08;;;;;;;1999.90;999.90;;;7.40;99.90;;;;;;5092092;28;20414;-66
2023/03/15 10:06:37;;;;;;;1999.90;999.90;;;7.10;99.90;;;;;;5096078;28;20911;-67
2023/03/15 10:09:12;;;;;;;1999.90;999.90;;;6.90;99.90;;;;;;5100179;28;20418;-67
2023/03/15 10:11:46;;;;;;;1999.90;999.90;;;7.10;99.90;;;;;;5091737;28;20432;-68
2023/03/15 10:14:23;;;;;;;1999.90;999.90;;;7.30;99.90;;;;;;5101550;28;20426;-67
2023/03/15 10:16:51;;;;;;;1999.90;999.90;;;7.50;99.90;;;;;;5099908;28;20928;-67
2023/03/15 10:19:28;;;;;;;1999.90;999.90;;;7.60;99.90;;;;;;5091692;28;20445;-66
2023/03/15 10:22:01;;;;;;;1999.90;999.90;;;7.40;99.90;;;;;;5091731;28;20406;-66
2023/03/15 10:24:34;;;;;;;1999.90;999.90;;;7.40;99.90;;;;;;5097961;28;20947;-67
2023/03/15 10:27:16;;;;;;;1999.90;999.90;;;7.60;99.90;;;;;;5093441;28;20413;-67
2023/03/15 10:29:44;;;;;;;1999.90;999.90;;;7.90;99.90;;;;;;5090819;28;20962;-67
2023/03/15 10:32:16;;;;;;;1999.90;999.90;;;8.20;99.90;;;;;;5091204;28;20426;-67
2023/03/15 10:34:45;;;;;;;1999.90;999.90;;;8.70;99.90;;;;;;5099626;28;20511;-67
2023/03/15 10:37:12;;;;;;;1999.90;999.90;;;8.90;99.90;;;;;;5099795;28;20437;-66
2023/03/15 10:39:45;;;;;;;1999.90;999.90;;;8.20;99.90;;;;;;5103264;28;20442;-67
2023/03/15 10:42:24;;;;;;;1999.90;999.90;;;7.40;99.90;;;;;;5091713;28;20456;-66
2023/03/15 10:44:51;;;;;;;1999.90;999.90;;;6.80;99.90;;;;;;5100520;28;20479;-64
2023/03/15 10:47:20;;;;;;;1999.90;999.90;;;6.50;99.90;;;;;;5111423;28;20891;-66
2023/03/15 10:49:47;;;;;;;1999.90;999.90;;;6.30;99.90;;;;;;5111364;28;20418;-66
2023/03/15 10:52:34;;;;;;;1999.90;999.90;;;6.60;99.90;;;;;;5111446;28;20420;-67
2023/03/15 10:55:05;;;;;;;1999.90;999.90;;;7.40;99.90;;;;;;5100539;28;20804;-66
2023/03/15 10:57:37;;;;;;;1999.90;999.90;;;8.10;99.90;;;;;;5097002;28;20804;-66
2023/03/15 11:00:22;;;;;;;1999.90;999.90;;;8.40;99.90;;;;;;5091007;28;20421;-67
2023/03/15 11:02:50;;;;;;;1999.90;999.90;;;8.40;99.90;;;;;;5090073;28;20467;-68
2023/03/15 11:05:18;;;;;;;1999.90;999.90;;;8.00;99.70;;;;;;5099142;28;20418;-68
2023/03/15 11:07:56;;;;;;;1999.90;999.90;;;7.70;99.90;;;;;;5106847;28;20408;-68
2023/03/15 11:10:27;;;;;;;1999.90;999.90;;;7.50;99.90;;;;;;5109833;28;20432;-65
2023/03/15 11:13:09;;;;;;;1999.90;999.90;;;7.10;99.90;;;;;;5102353;28;20426;-66
2023/03/15 11:15:36;;;;;;;1999.90;999.90;;;6.90;99.90;;;;;;5111168;28;20408;-66
2023/03/15 11:18:03;;;;;;;1999.90;999.90;;;7.00;99.90;;;;;;5105151;28;20419;-66
2023/03/15 11:20:34;;;;;;;1999.90;999.90;;;6.90;99.90;;;;;;5104788;28;20435;-66
2023/03/15 11:23:13;;;;;;;1999.90;999.90;;;6.90;99.90;;;;;;5100106;28;20423;-65
2023/03/15 11:25:41;;;;;;;1999.90;999.90;;;6.90;99.90;;;;;;5107477;28;20416;-65
2023/03/15 11:28:16;;;;;;;1999.90;999.90;;;7.20;99.90;;;;;;5091307;28;20418;-63
2023/03/15 11:30:44;;;;;;;1999.90;999.90;;;7.60;97.90;;;;;;5105915;28;20424;-66
2023/03/15 11:33:25;;;;;;;1999.90;999.90;;;7.90;96.50;;;;;;5106698;28;20424;-66
2023/03/15 11:35:53;;;;;;;1999.90;999.90;;;7.90;96.00;;;;;;5103510;28;20465;-66
2023/03/15 11:38:28;;;;;;;1999.90;999.90;;;8.10;96.40;;;;;;5106179;28;20497;-64
2023/03/15 11:40:58;;;;;;;1999.90;999.90;;;8.20;97.00;;;;;;5105510;27;20477;-65
2023/03/15 11:43:29;;;;;;;1999.90;999.90;;;8.50;96.30;;;;;;5108549;28;20480;-66
2023/03/15 11:45:58;;;;;;;1999.90;999.90;;;8.70;95.70;;;;;;5107903;28;20424;-65
2023/03/15 11:48:28;;;;;;;1999.90;999.90;;;8.90;95.90;;;;;;5106078;28;20481;-63
2023/03/15 11:50:55;;;;;;;1999.90;999.90;;;9.30;96.10;;;;;;5105624;28;20423;-64
2023/03/15 11:53:24;;;;;;;1999.90;999.90;;;9.80;96.10;;;;;;5104157;28;20424;-65
2023/03/15 11:55:53;;;;;;;1999.90;999.90;;;9.70;94.90;;;;;;5105945;28;20497;-67
2023/03/15 11:58:33;;;;;;;1999.90;999.90;;;8.90;96.20;;;;;;5104995;28;20428;-65
2023/03/15 12:01:04;;;;;;;1999.90;999.90;;;7.90;98.80;;;;;;5106278;28;20462;-64
2023/03/15 12:03:37;;;;;;;1999.90;999.90;;;7.20;99.90;;;;;;5103644;28;20836;-64
2023/03/15 12:06:11;;;;;;;1999.90;999.90;;;6.50;99.90;;;;;;5106634;28;20786;-66
2023/03/15 12:08:44;;;;;;;1999.90;999.90;;;6.30;99.90;;;;;;5103060;28;20848;-66
2023/03/15 12:11:12;;;;;;;1999.90;999.90;;;6.00;99.90;;;;;;5105350;28;20828;-63
2023/03/15 12:13:52;;;;;;;1999.90;999.90;;;6.00;99.90;;;;;;5101930;28;20445;-65
2023/03/15 12:16:21;;;;;;;1999.90;999.90;;;6.10;99.90;;;;;;5105519;28;20919;-66